sensor_id;sensor_type;location;lat;lon;timestamp;temperature;humidity
67603;DHT22;54417;47.454;18.918;2022-08-21T00:01:24;18.95;89.95
67603;DHT22;54417;47.454;18.918;2022-08-21T00:06:50;18.89;90.22
67603;DHT22;54417;47.454;18.918;2022-08-21T00:12:14;18.87;90.12
67603;DHT22;54417;47.454;18.918;2022-08-21T00:17:37;18.87;90.27
67603;DHT22;54417;47.454;18.918;2022-08-21T00:23:03;18.82;90.54
67603;DHT22;54417;47.454;18.918;2022-08-21T00:28:27;18.82;90.51
67603;DHT22;54417;47.454;18.918;2022-08-21T00:33:50;18.81;90.41
67603;DHT22;54417;47.454;18.918;2022-08-21T00:39:23;18.81;90.61
67603;DHT22;54417;47.454;18.918;2022-08-21T00:44:48;18.81;90.32
67603;DHT22;54417;47.454;18.918;2022-08-21T00:50:12;18.87;90.34
67603;DHT22;54417;47.454;18.918;2022-08-21T00:55:45;18.85;90.17
67603;DHT22;54417;47.454;18.918;2022-08-21T01:01:10;18.85;90.33
67603;DHT22;54417;47.454;18.918;2022-08-21T01:06:34;18.84;90.38
67603;DHT22;54417;47.454;18.918;2022-08-21T01:11:59;18.84;90.48
67603;DHT22;54417;47.454;18.918;2022-08-21T01:17:23;18.81;90.50
67603;DHT22;54417;47.454;18.918;2022-08-21T01:22:49;18.78;90.57
67603;DHT22;54417;47.454;18.918;2022-08-21T01:28:14;18.87;90.71
67603;DHT22;54417;47.454;18.918;2022-08-21T01:33:38;18.81;90.68
67603;DHT22;54417;47.454;18.918;2022-08-21T01:39:04;18.79;90.58
67603;DHT22;54417;47.454;18.918;2022-08-21T01:44:28;18.75;90.54
67603;DHT22;54417;47.454;18.918;2022-08-21T01:49:52;18.76;90.71
67603;DHT22;54417;47.454;18.918;2022-08-21T01:55:18;18.69;90.78
67603;DHT22;54417;47.454;18.918;2022-08-21T02:00:42;18.68;90.91
67603;DHT22;54417;47.454;18.918;2022-08-21T02:06:11;18.64;91.05
67603;DHT22;54417;47.454;18.918;2022-08-21T02:11:37;18.65;90.98
67603;DHT22;54417;47.454;18.918;2022-08-21T02:17:03;18.68;91.07
67603;DHT22;54417;47.454;18.918;2022-08-21T02:22:31;18.65;91.29
67603;DHT22;54417;47.454;18.918;2022-08-21T02:27:56;18.64;91.36
67603;DHT22;54417;47.454;18.918;2022-08-21T02:33:20;18.61;91.29
67603;DHT22;54417;47.454;18.918;2022-08-21T02:38:44;18.55;91.46
67603;DHT22;54417;47.454;18.918;2022-08-21T02:44:09;18.58;91.49
67603;DHT22;54417;47.454;18.918;2022-08-21T02:49:33;18.55;91.46
67603;DHT22;54417;47.454;18.918;2022-08-21T02:54:56;18.48;91.71
67603;DHT22;54417;47.454;18.918;2022-08-21T03:00:23;18.47;91.79
67603;DHT22;54417;47.454;18.918;2022-08-21T03:05:47;18.45;91.84
67603;DHT22;54417;47.454;18.918;2022-08-21T03:11:12;18.43;92.00
67603;DHT22;54417;47.454;18.918;2022-08-21T03:16:38;18.43;92.05
67603;DHT22;54417;47.454;18.918;2022-08-21T03:22:01;18.43;92.14
67603;DHT22;54417;47.454;18.918;2022-08-21T03:27:26;18.43;92.32
67603;DHT22;54417;47.454;18.918;2022-08-21T03:32:53;18.38;92.30
67603;DHT22;54417;47.454;18.918;2022-08-21T03:38:18;18.36;92.32
67603;DHT22;54417;47.454;18.918;2022-08-21T03:43:47;18.37;92.55
67603;DHT22;54417;47.454;18.918;2022-08-21T03:49:12;18.40;92.57
67603;DHT22;54417;47.454;18.918;2022-08-21T03:54:36;18.36;92.63
67603;DHT22;54417;47.454;18.918;2022-08-21T04:00:02;18.36;92.56
67603;DHT22;54417;47.454;18.918;2022-08-21T04:05:27;18.40;92.51
67603;DHT22;54417;47.454;18.918;2022-08-21T04:10:54;18.47;92.27
67603;DHT22;54417;47.454;18.918;2022-08-21T04:16:18;18.41;92.41
67603;DHT22;54417;47.454;18.918;2022-08-21T04:21:44;18.44;92.11
67603;DHT22;54417;47.454;18.918;2022-08-21T04:27:10;18.50;92.06
67603;DHT22;54417;47.454;18.918;2022-08-21T04:32:34;18.51;91.88
67603;DHT22;54417;47.454;18.918;2022-08-21T04:37:59;18.57;91.32
67603;DHT22;54417;47.454;18.918;2022-08-21T04:43:23;18.65;91.08
67603;DHT22;54417;47.454;18.918;2022-08-21T04:48:46;18.62;90.82
67603;DHT22;54417;47.454;18.918;2022-08-21T04:54:14;18.62;90.59
67603;DHT22;54417;47.454;18.918;2022-08-21T04:59:42;18.72;90.31
67603;DHT22;54417;47.454;18.918;2022-08-21T05:05:07;18.76;89.87
67603;DHT22;54417;47.454;18.918;2022-08-21T05:10:32;18.81;89.53
67603;DHT22;54417;47.454;18.918;2022-08-21T05:15:56;18.81;89.15
67603;DHT22;54417;47.454;18.918;2022-08-21T05:21:21;18.85;88.98
67603;DHT22;54417;47.454;18.918;2022-08-21T05:26:50;18.88;88.79
67603;DHT22;54417;47.454;18.918;2022-08-21T05:32:14;18.92;88.47
67603;DHT22;54417;47.454;18.918;2022-08-21T05:37:37;18.96;88.12
67603;DHT22;54417;47.454;18.918;2022-08-21T05:43:03;18.99;88.01
67603;DHT22;54417;47.454;18.918;2022-08-21T05:48:26;19.03;87.38
67603;DHT22;54417;47.454;18.918;2022-08-21T05:53:50;19.06;87.13
67603;DHT22;54417;47.454;18.918;2022-08-21T05:59:15;19.13;86.94
67603;DHT22;54417;47.454;18.918;2022-08-21T06:04:39;19.23;86.72
67603;DHT22;54417;47.454;18.918;2022-08-21T06:10:03;19.36;87.48
67603;DHT22;54417;47.454;18.918;2022-08-21T06:15:29;19.38;86.54
67603;DHT22;54417;47.454;18.918;2022-08-21T06:20:52;19.34;86.26
67603;DHT22;54417;47.454;18.918;2022-08-21T06:26:19;19.20;86.43
67603;DHT22;54417;47.454;18.918;2022-08-21T06:31:44;19.47;85.58
67603;DHT22;54417;47.454;18.918;2022-08-21T06:37:09;19.46;85.68
67603;DHT22;54417;47.454;18.918;2022-08-21T06:42:32;19.60;85.29
67603;DHT22;54417;47.454;18.918;2022-08-21T06:47:57;19.58;84.97
67603;DHT22;54417;47.454;18.918;2022-08-21T06:53:22;19.63;84.74
67603;DHT22;54417;47.454;18.918;2022-08-21T06:58:46;19.78;84.61
67603;DHT22;54417;47.454;18.918;2022-08-21T07:04:11;20.11;83.40
67603;DHT22;54417;47.454;18.918;2022-08-21T07:09:34;20.14;83.41
67603;DHT22;54417;47.454;18.918;2022-08-21T07:14:58;20.39;82.42
67603;DHT22;54417;47.454;18.918;2022-08-21T07:20:23;20.81;81.75
67603;DHT22;54417;47.454;18.918;2022-08-21T07:25:48;20.88;80.96
67603;DHT22;54417;47.454;18.918;2022-08-21T07:31:14;21.27;80.46
67603;DHT22;54417;47.454;18.918;2022-08-21T07:36:39;21.43;79.39
67603;DHT22;54417;47.454;18.918;2022-08-21T07:42:04;21.79;78.77
67603;DHT22;54417;47.454;18.918;2022-08-21T07:47:29;21.82;77.61
67603;DHT22;54417;47.454;18.918;2022-08-21T07:53:05;21.80;77.86
67603;DHT22;54417;47.454;18.918;2022-08-21T07:58:29;21.72;78.09
67603;DHT22;54417;47.454;18.918;2022-08-21T08:03:54;21.92;78.03
67603;DHT22;54417;47.454;18.918;2022-08-21T08:09:19;22.17;77.12
67603;DHT22;54417;47.454;18.918;2022-08-21T08:14:43;22.61;75.77
67603;DHT22;54417;47.454;18.918;2022-08-21T08:20:09;22.88;75.04
67603;DHT22;54417;47.454;18.918;2022-08-21T08:25:34;23.04;74.88
67603;DHT22;54417;47.454;18.918;2022-08-21T08:30:58;23.34;73.19
67603;DHT22;54417;47.454;18.918;2022-08-21T08:36:31;23.24;74.12
67603;DHT22;54417;47.454;18.918;2022-08-21T08:42:01;23.20;73.15
67603;DHT22;54417;47.454;18.918;2022-08-21T08:47:52;23.64;71.57
67603;DHT22;54417;47.454;18.918;2022-08-21T08:53:24;23.85;70.74
67603;DHT22;54417;47.454;18.918;2022-08-21T08:58:52;23.55;72.11
67603;DHT22;54417;47.454;18.918;2022-08-21T09:04:22;23.68;71.61
67603;DHT22;54417;47.454;18.918;2022-08-21T09:09:56;23.31;72.86
67603;DHT22;54417;47.454;18.918;2022-08-21T09:15:30;23.07;73.68
67603;DHT22;54417;47.454;18.918;2022-08-21T09:21:05;23.72;72.44
67603;DHT22;54417;47.454;18.918;2022-08-21T09:26:45;23.85;71.73
67603;DHT22;54417;47.454;18.918;2022-08-21T09:32:17;23.97;72.19
67603;DHT22;54417;47.454;18.918;2022-08-21T09:37:53;24.01;70.80
67603;DHT22;54417;47.454;18.918;2022-08-21T09:43:18;24.22;70.96
67603;DHT22;54417;47.454;18.918;2022-08-21T09:48:46;23.81;71.30
67603;DHT22;54417;47.454;18.918;2022-08-21T09:54:14;24.04;71.06
67603;DHT22;54417;47.454;18.918;2022-08-21T09:59:41;24.08;71.23
67603;DHT22;54417;47.454;18.918;2022-08-21T10:05:16;24.39;69.82
67603;DHT22;54417;47.454;18.918;2022-08-21T10:10:40;24.77;70.08
67603;DHT22;54417;47.454;18.918;2022-08-21T10:16:13;25.46;67.58
67603;DHT22;54417;47.454;18.918;2022-08-21T10:21:42;25.14;68.19
67603;DHT22;54417;47.454;18.918;2022-08-21T10:27:16;25.46;66.70
67603;DHT22;54417;47.454;18.918;2022-08-21T10:32:57;25.18;67.06
67603;DHT22;54417;47.454;18.918;2022-08-21T10:39:01;25.63;66.96
67603;DHT22;54417;47.454;18.918;2022-08-21T10:44:55;26.07;67.70
67603;DHT22;54417;47.454;18.918;2022-08-21T10:50:29;26.25;64.44
67603;DHT22;54417;47.454;18.918;2022-08-21T10:55:59;26.21;65.63
67603;DHT22;54417;47.454;18.918;2022-08-21T11:01:27;26.47;63.14
67603;DHT22;54417;47.454;18.918;2022-08-21T11:06:57;26.35;63.92
67603;DHT22;54417;47.454;18.918;2022-08-21T11:12:31;26.85;63.43
67603;DHT22;54417;47.454;18.918;2022-08-21T11:18:04;26.67;62.84
67603;DHT22;54417;47.454;18.918;2022-08-21T11:23:44;26.53;62.21
67603;DHT22;54417;47.454;18.918;2022-08-21T11:29:13;26.61;63.20
67603;DHT22;54417;47.454;18.918;2022-08-21T11:34:47;26.59;63.24
67603;DHT22;54417;47.454;18.918;2022-08-21T11:40:31;26.80;61.88
67603;DHT22;54417;47.454;18.918;2022-08-21T11:46:03;26.78;61.83
67603;DHT22;54417;47.454;18.918;2022-08-21T11:51:38;26.21;62.93
67603;DHT22;54417;47.454;18.918;2022-08-21T11:57:04;25.83;63.67
67603;DHT22;54417;47.454;18.918;2022-08-21T12:02:35;25.41;65.24
67603;DHT22;54417;47.454;18.918;2022-08-21T12:08:04;25.45;65.70
67603;DHT22;54417;47.454;18.918;2022-08-21T12:13:29;25.03;67.17
67603;DHT22;54417;47.454;18.918;2022-08-21T12:19:06;25.28;66.77
67603;DHT22;54417;47.454;18.918;2022-08-21T12:24:33;25.11;67.26
67603;DHT22;54417;47.454;18.918;2022-08-21T12:30:01;24.63;68.64
67603;DHT22;54417;47.454;18.918;2022-08-21T12:35:32;25.10;67.52
67603;DHT22;54417;47.454;18.918;2022-08-21T12:40:59;24.92;67.94
67603;DHT22;54417;47.454;18.918;2022-08-21T12:46:30;24.80;67.65
67603;DHT22;54417;47.454;18.918;2022-08-21T12:52:03;24.41;68.88
67603;DHT22;54417;47.454;18.918;2022-08-21T12:57:29;24.73;68.40
67603;DHT22;54417;47.454;18.918;2022-08-21T13:02:55;24.61;68.30
67603;DHT22;54417;47.454;18.918;2022-08-21T13:08:22;24.23;69.56
67603;DHT22;54417;47.454;18.918;2022-08-21T13:13:48;24.16;70.04
67603;DHT22;54417;47.454;18.918;2022-08-21T13:19:17;24.02;70.20
67603;DHT22;54417;47.454;18.918;2022-08-21T13:24:47;24.10;70.12
67603;DHT22;54417;47.454;18.918;2022-08-21T13:30:17;24.06;70.12
67603;DHT22;54417;47.454;18.918;2022-08-21T13:35:47;23.57;72.21
67603;DHT22;54417;47.454;18.918;2022-08-21T13:41:24;23.23;73.35
67603;DHT22;54417;47.454;18.918;2022-08-21T13:46:49;22.45;77.26
67603;DHT22;54417;47.454;18.918;2022-08-21T13:52:15;22.00;80.45
67603;DHT22;54417;47.454;18.918;2022-08-21T13:57:41;21.48;82.44
67603;DHT22;54417;47.454;18.918;2022-08-21T14:03:07;21.34;82.89
67603;DHT22;54417;47.454;18.918;2022-08-21T14:08:34;21.15;84.98
67603;DHT22;54417;47.454;18.918;2022-08-21T14:14:02;21.11;85.56
67603;DHT22;54417;47.454;18.918;2022-08-21T14:19:36;20.88;86.15
67603;DHT22;54417;47.454;18.918;2022-08-21T14:25:02;21.02;86.64
67603;DHT22;54417;47.454;18.918;2022-08-21T14:30:31;21.05;86.61
67603;DHT22;54417;47.454;18.918;2022-08-21T14:35:56;21.05;85.79
67603;DHT22;54417;47.454;18.918;2022-08-21T14:41:22;21.39;86.36
67603;DHT22;54417;47.454;18.918;2022-08-21T14:46:47;21.37;86.30
67603;DHT22;54417;47.454;18.918;2022-08-21T14:52:18;21.20;86.43
67603;DHT22;54417;47.454;18.918;2022-08-21T14:57:42;20.95;87.63
67603;DHT22;54417;47.454;18.918;2022-08-21T15:03:09;20.73;88.82
67603;DHT22;54417;47.454;18.918;2022-08-21T15:08:33;20.62;89.33
67603;DHT22;54417;47.454;18.918;2022-08-21T15:14:01;20.53;89.70
67603;DHT22;54417;47.454;18.918;2022-08-21T15:19:26;20.59;89.33
67603;DHT22;54417;47.454;18.918;2022-08-21T15:24:51;20.62;89.32
67603;DHT22;54417;47.454;18.918;2022-08-21T15:30:15;20.67;89.39
67603;DHT22;54417;47.454;18.918;2022-08-21T15:35:40;20.67;88.92
67603;DHT22;54417;47.454;18.918;2022-08-21T15:41:04;20.71;89.37
67603;DHT22;54417;47.454;18.918;2022-08-21T15:46:28;20.62;90.09
67603;DHT22;54417;47.454;18.918;2022-08-21T15:51:54;20.56;90.04
67603;DHT22;54417;47.454;18.918;2022-08-21T15:57:19;20.50;89.62
67603;DHT22;54417;47.454;18.918;2022-08-21T16:02:46;20.29;90.32
67603;DHT22;54417;47.454;18.918;2022-08-21T16:08:12;20.21;90.97
67603;DHT22;54417;47.454;18.918;2022-08-21T16:13:39;20.21;91.62
67603;DHT22;54417;47.454;18.918;2022-08-21T16:19:05;20.15;91.24
67603;DHT22;54417;47.454;18.918;2022-08-21T16:24:30;20.15;91.87
67603;DHT22;54417;47.454;18.918;2022-08-21T16:29:55;20.12;92.15
67603;DHT22;54417;47.454;18.918;2022-08-21T16:35:20;20.12;92.28
67603;DHT22;54417;47.454;18.918;2022-08-21T16:40:46;20.02;92.24
67603;DHT22;54417;47.454;18.918;2022-08-21T16:46:12;19.98;93.12
67603;DHT22;54417;47.454;18.918;2022-08-21T16:51:36;19.91;93.25
67603;DHT22;54417;47.454;18.918;2022-08-21T16:57:01;19.85;93.59
67603;DHT22;54417;47.454;18.918;2022-08-21T17:02:30;19.74;93.57
67603;DHT22;54417;47.454;18.918;2022-08-21T17:07:55;19.68;93.78
67603;DHT22;54417;47.454;18.918;2022-08-21T17:13:20;19.67;94.15
67603;DHT22;54417;47.454;18.918;2022-08-21T17:18:44;19.58;93.75
67603;DHT22;54417;47.454;18.918;2022-08-21T17:24:13;19.49;94.42
67603;DHT22;54417;47.454;18.918;2022-08-21T17:29:39;19.46;94.97
67603;DHT22;54417;47.454;18.918;2022-08-21T17:35:20;19.46;94.69
67603;DHT22;54417;47.454;18.918;2022-08-21T17:40:46;19.37;94.71
67603;DHT22;54417;47.454;18.918;2022-08-21T17:46:16;19.33;94.56
67603;DHT22;54417;47.454;18.918;2022-08-21T17:51:41;19.24;95.51
67603;DHT22;54417;47.454;18.918;2022-08-21T17:57:05;19.22;95.74
67603;DHT22;54417;47.454;18.918;2022-08-21T18:02:30;19.17;96.22
67603;DHT22;54417;47.454;18.918;2022-08-21T18:07:54;19.10;96.19
67603;DHT22;54417;47.454;18.918;2022-08-21T18:13:22;19.09;96.14
67603;DHT22;54417;47.454;18.918;2022-08-21T18:18:49;19.08;96.07
67603;DHT22;54417;47.454;18.918;2022-08-21T18:24:14;19.03;96.22
67603;DHT22;54417;47.454;18.918;2022-08-21T18:29:38;19.00;96.40
67603;DHT22;54417;47.454;18.918;2022-08-21T18:35:11;19.00;96.40
67603;DHT22;54417;47.454;18.918;2022-08-21T18:40:37;19.05;96.00
67603;DHT22;54417;47.454;18.918;2022-08-21T18:46:02;18.99;96.58
67603;DHT22;54417;47.454;18.918;2022-08-21T18:51:27;18.98;96.82
67603;DHT22;54417;47.454;18.918;2022-08-21T18:56:51;18.94;96.90
67603;DHT22;54417;47.454;18.918;2022-08-21T19:02:16;18.96;96.81
67603;DHT22;54417;47.454;18.918;2022-08-21T19:07:41;18.95;96.73
67603;DHT22;54417;47.454;18.918;2022-08-21T19:13:05;18.89;96.76
67603;DHT22;54417;47.454;18.918;2022-08-21T19:18:31;18.91;96.79
67603;DHT22;54417;47.454;18.918;2022-08-21T19:23:58;18.82;96.93
67603;DHT22;54417;47.454;18.918;2022-08-21T19:29:39;18.82;96.65
67603;DHT22;54417;47.454;18.918;2022-08-21T19:35:05;18.79;96.88
67603;DHT22;54417;47.454;18.918;2022-08-21T19:40:30;18.73;96.45
67603;DHT22;54417;47.454;18.918;2022-08-21T19:45:55;18.75;96.49
67603;DHT22;54417;47.454;18.918;2022-08-21T19:51:19;18.61;96.67
67603;DHT22;54417;47.454;18.918;2022-08-21T19:56:46;18.58;96.74
67603;DHT22;54417;47.454;18.918;2022-08-21T20:02:13;18.52;96.80
67603;DHT22;54417;47.454;18.918;2022-08-21T20:07:38;18.43;97.95
67603;DHT22;54417;47.454;18.918;2022-08-21T20:13:03;18.38;97.44
67603;DHT22;54417;47.454;18.918;2022-08-21T20:18:27;18.36;97.75
67603;DHT22;54417;47.454;18.918;2022-08-21T20:23:51;18.36;97.48
67603;DHT22;54417;47.454;18.918;2022-08-21T20:29:17;18.33;97.48
67603;DHT22;54417;47.454;18.918;2022-08-21T20:34:51;18.30;97.44
67603;DHT22;54417;47.454;18.918;2022-08-21T20:40:16;18.34;97.39
67603;DHT22;54417;47.454;18.918;2022-08-21T20:45:44;18.31;97.32
67603;DHT22;54417;47.454;18.918;2022-08-21T20:51:11;18.23;97.15
67603;DHT22;54417;47.454;18.918;2022-08-21T20:56:42;18.13;96.92
67603;DHT22;54417;47.454;18.918;2022-08-21T21:02:16;18.10;96.86
67603;DHT22;54417;47.454;18.918;2022-08-21T21:07:53;18.09;96.56
67603;DHT22;54417;47.454;18.918;2022-08-21T21:13:21;18.02;96.86
67603;DHT22;54417;47.454;18.918;2022-08-21T21:18:55;18.00;97.07
67603;DHT22;54417;47.454;18.918;2022-08-21T21:24:22;17.97;97.07
67603;DHT22;54417;47.454;18.918;2022-08-21T21:29:51;17.89;97.04
67603;DHT22;54417;47.454;18.918;2022-08-21T21:35:20;17.85;97.07
67603;DHT22;54417;47.454;18.918;2022-08-21T21:41:10;17.79;97.23
67603;DHT22;54417;47.454;18.918;2022-08-21T21:46:46;17.78;97.04
67603;DHT22;54417;47.454;18.918;2022-08-21T21:52:24;17.76;97.14
67603;DHT22;54417;47.454;18.918;2022-08-21T21:57:58;17.78;97.03
67603;DHT22;54417;47.454;18.918;2022-08-21T22:03:28;17.86;96.79
67603;DHT22;54417;47.454;18.918;2022-08-21T22:09:18;17.83;96.72
67603;DHT22;54417;47.454;18.918;2022-08-21T22:14:44;17.82;96.79
67603;DHT22;54417;47.454;18.918;2022-08-21T22:20:13;17.72;96.89
67603;DHT22;54417;47.454;18.918;2022-08-21T22:25:43;17.71;96.66
67603;DHT22;54417;47.454;18.918;2022-08-21T22:31:16;17.61;96.62
67603;DHT22;54417;47.454;18.918;2022-08-21T22:36:44;17.58;96.70
67603;DHT22;54417;47.454;18.918;2022-08-21T22:42:22;17.73;96.63
67603;DHT22;54417;47.454;18.918;2022-08-21T22:47:46;17.78;96.66
67603;DHT22;54417;47.454;18.918;2022-08-21T22:53:10;17.83;96.63
67603;DHT22;54417;47.454;18.918;2022-08-21T22:58:54;17.81;96.29
67603;DHT22;54417;47.454;18.918;2022-08-21T23:04:20;17.72;96.37
67603;DHT22;54417;47.454;18.918;2022-08-21T23:09:47;17.76;96.38
67603;DHT22;54417;47.454;18.918;2022-08-21T23:15:35;17.78;96.26
67603;DHT22;54417;47.454;18.918;2022-08-21T23:21:09;17.82;96.14
67603;DHT22;54417;47.454;18.918;2022-08-21T23:26:39;17.82;96.13
67603;DHT22;54417;47.454;18.918;2022-08-21T23:32:29;17.83;95.98
67603;DHT22;54417;47.454;18.918;2022-08-21T23:38:05;17.96;96.02
67603;DHT22;54417;47.454;18.918;2022-08-21T23:43:39;17.85;95.47
67603;DHT22;54417;47.454;18.918;2022-08-21T23:49:16;17.90;95.58
67603;DHT22;54417;47.454;18.918;2022-08-21T23:54:57;17.83;95.43
